Startpagina
METAR-TAF:

METAR-TAF

Vliegvelden :

Shell, Ecuador

breedte: 01-30-19S, lengte: 078-03-46W, hoogte: 1056 m

Actueel weer

Dit bericht is 1 uur en het 0 minuten geleden gemaakt, om 15:00 UTC
Wind 3 kt uit het noorden, variërend tussen het noordwesten en het noordoosten
Temperatuur 25°C
Vochtigheid 65%
Druk 1020 hPa
Zicht 10 km of meer
Verspreide wolken op 3000 ft
Gebroken wolken op 10000 ft

METAR: SESM 151500Z 35003KT 310V040 9999 SCT030 BKN100 25/18 Q1020 RMK A3012

Tijdstip: 11:00 (16:00 UTC)


TAF: ontbreekt

Waarnemingen en weersverwachtingen van meer dan 4000 vliegvelden (METAR en TAF).

De beschikbare stations zijn de gele en rode punten op de kaart.

Ga met uw muis naar het station om de naam te zien.

Klik dan om waarnemingen en weersverwachtingen te zien.

kaart wijzigen: klik op de groene knoppen met een zwart kruis om in te zoomen, op de groene knop met een streepje om uit te zoomen of op de groene pijlen voor aangrenzende kaarten.


METAR-TAF: